• Join FlightAware (Why Join?)
  • Login
  • US Flag 
01:08PM EDT


 

Airport Tracker/Info


-or-


 

Live Flight TrackerFlight Track Log ✈ SKW5516 ✈ 02-Jun-2013 ✈ KSFO - KFAT

Flight Track Log - Related Links

Times and Time Zones

All times are in EDT time to prevent confusion due to time zone crossing. See the SKW5516 flight status page for this flight to view local times or setup timezone preferences in your user account.

Time Position Orientation Groundspeed Altitude Reporting Facility
EDT Latitude Longitude Course Direction KTS MPH feet Rate Location/Type
01:51PM 37.5167 -122.0389 111° Southeast  Level Estimated
01:52PM 37.4910 -121.9550 111° Southeast  Level Estimated
01:53PM 37.4652 -121.8711 111° Southeast  Level Estimated
01:54PM 37.4393 -121.7873 111° Southeast  Level Estimated
01:55PM 37.4134 -121.7036 111° Southeast  Level Estimated
01:56PM 37.3874 -121.6199 111° Southeast  Level Estimated
01:57PM 37.3614 -121.5362 111° Southeast  Level Estimated
01:58PM 37.3353 -121.4527 111° Southeast  Level Estimated
01:59PM 37.3091 -121.3691 111° Southeast  Level Estimated
02:00PM 37.2829 -121.2857 112° Southeast  Level Estimated
02:01PM 37.2567 -121.2023 112° Southeast  Level Estimated
02:02PM 37.2303 -121.1189 112° Southeast  Level Estimated
02:03PM 37.2039 -121.0356 112° Southeast  Level Estimated
02:04PM 37.1775 -120.9524 112° Southeast  Level Estimated
02:05PM 37.1510 -120.8692 112° Southeast  Level Estimated
02:06PM 37.1244 -120.7861 112° Southeast  Level Estimated
02:07PM 37.0978 -120.7030 112° Southeast  Level Estimated
02:08PM 37.0711 -120.6200 112° Southeast  Level Estimated
02:09PM 37.0444 -120.5371 112° Southeast  Level Estimated
02:10PM 37.0176 -120.4542 112° Southeast  Level Estimated
02:11PM 36.9907 -120.3714 112° Southeast  Level Estimated
02:12PM 36.9638 -120.2886 112° Southeast  Level Estimated
02:13PM 36.9369 -120.2059 112° Southeast  Level Estimated
02:14PM 36.9098 -120.1233 112° Southeast  Level Estimated
02:15PM 36.8828 -120.0407 112° Southeast  Level Estimated
02:16PM 36.8556 -119.9582 112° Southeast  Level Estimated
02:17PM 36.8284 -119.8757 112° Southeast  Level Estimated
02:18PM 36.8012 -119.7933 112° Southeast  Level Estimated
02:19PM 36.7764 -119.7187 112° Southeast  Level Estimated
02:20PM 36.7764 -119.7187 148° Southeast  Level Estimated
02:21PM 36.7764 -119.7187 148° Southeast  Level Estimated
02:22PM 36.7764 -119.7187 148° Southeast  Level Estimated
02:23PM 36.7764 -119.7187 148° Southeast  Level Estimated
02:24PM 36.7764 -119.7187 148° Southeast  Level Estimated
02:25PM 36.7764 -119.7187 148° Southeast  Level Estimated
02:26PM 36.7764 -119.7187 148° Southeast  Level Estimated